createdAt,value
2022-09-01T00:00:51.581Z,98317.72
2022-09-01T00:03:23.914Z,98322.06
2022-09-01T00:05:57.325Z,98324.06
2022-09-01T00:08:30.430Z,98324.56
2022-09-01T00:11:00.678Z,98318.94
2022-09-01T00:13:33.433Z,98315.88
2022-09-01T00:16:04.656Z,98320.47
2022-09-01T00:18:36.236Z,98317.66
2022-09-01T00:21:07.013Z,98319.19
2022-09-01T00:23:40.365Z,98314.28
2022-09-01T00:26:10.777Z,98317.81
2022-09-01T00:28:42.056Z,98317.59
2022-09-01T00:31:15.193Z,98319.06
2022-09-01T00:33:46.041Z,98310.91
2022-09-01T00:36:16.005Z,98310.66
2022-09-01T00:38:49.196Z,98310.38
2022-09-01T00:41:21.969Z,98314.66
2022-09-01T00:43:56.001Z,98308.28
2022-09-01T00:46:30.561Z,98305.72
2022-09-01T00:49:08.695Z,98304.72
2022-09-01T00:51:41.776Z,98306.19
2022-09-01T00:54:21.175Z,98305.16
2022-09-01T00:56:57.783Z,98307.41
2022-09-01T00:59:30.944Z,98310.50
2022-09-01T01:02:01.452Z,98311.50
2022-09-01T01:04:32.272Z,98307.66
2022-09-01T01:07:04.555Z,98307.13
2022-09-01T01:09:45.532Z,98309.16
2022-09-01T01:12:18.804Z,98306.38
2022-09-01T01:14:52.682Z,98312.44
2022-09-01T01:17:25.438Z,98318.78
2022-09-01T01:20:11.694Z,98306.59
2022-09-01T01:23:10.189Z,98314.97
2022-09-01T01:25:47.949Z,98323.09
2022-09-01T01:28:22.427Z,98314.19
2022-09-01T01:31:01.868Z,98315.25
2022-09-01T01:33:39.286Z,98319.09
2022-09-01T01:36:16.562Z,98312.97
2022-09-01T01:38:52.564Z,98317.78
2022-09-01T01:41:26.294Z,98317.56
2022-09-01T01:43:57.254Z,98313.72
2022-09-01T01:46:28.965Z,98312.94
2022-09-01T01:49:01.447Z,98306.59
2022-09-01T01:51:33.118Z,98300.22
2022-09-01T01:54:06.194Z,98310.16
2022-09-01T01:56:41.984Z,98310.16
2022-09-01T01:59:16.806Z,98314.75
2022-09-01T02:01:51.476Z,98312.19
2022-09-01T02:04:23.631Z,98309.41
2022-09-01T02:06:56.072Z,98315.00
2022-09-01T02:09:27.850Z,98307.38
2022-09-01T02:12:00.625Z,98319.59
2022-09-01T02:14:34.086Z,98317.78
2022-09-01T02:17:07.426Z,98311.22
2022-09-01T02:19:43.489Z,98313.00
2022-09-01T02:22:14.047Z,98312.03
2022-09-01T02:24:46.656Z,98313.00
2022-09-01T02:27:26.009Z,98309.97
2022-09-01T02:29:58.884Z,98304.38
2022-09-01T02:32:29.483Z,98298.78
2022-09-01T02:35:01.390Z,98301.03
2022-09-01T02:37:31.584Z,98303.81
2022-09-01T02:40:02.274Z,98300.22
2022-09-01T02:42:35.067Z,98304.31
2022-09-01T02:45:16.311Z,98302.97
2022-09-01T02:47:48.653Z,98298.94
2022-09-01T02:50:22.642Z,98292.31
2022-09-01T02:52:53.180Z,98293.56
2022-09-01T02:55:25.335Z,98303.97
2022-09-01T02:57:58.518Z,98299.63
2022-09-01T03:00:33.603Z,98296.56
2022-09-01T03:03:05.932Z,98297.28
2022-09-01T03:05:39.367Z,98303.41
2022-09-01T03:08:14.849Z,98297.53
2022-09-01T03:10:48.058Z,98290.13
2022-09-01T03:13:25.330Z,98291.91
2022-09-01T03:15:55.754Z,98302.00
2022-09-01T03:18:26.243Z,98297.91
2022-09-01T03:20:56.576Z,98294.59
2022-09-01T03:23:28.278Z,98293.25
2022-09-01T03:25:59.160Z,98300.13
2022-09-01T03:28:32.150Z,98297.53
2022-09-01T03:31:02.911Z,98292.69
2022-09-01T03:33:34.483Z,98290.88
2022-09-01T03:36:05.035Z,98295.19
2022-09-01T03:38:48.907Z,98293.94
2022-09-01T03:41:25.267Z,98289.59
2022-09-01T03:44:00.624Z,98297.97
2022-09-01T03:46:36.824Z,98294.94
2022-09-01T03:49:13.419Z,98294.66
2022-09-01T03:51:45.189Z,98296.44
2022-09-01T03:54:17.876Z,98292.88
2022-09-01T03:56:48.162Z,98295.38
2022-09-01T03:59:25.631Z,98289.78
2022-09-01T04:01:56.938Z,98293.59
2022-09-01T04:04:27.422Z,98291.50
2022-09-01T04:06:57.641Z,98288.16
2022-09-01T04:09:28.019Z,98294.47
2022-09-01T04:11:58.214Z,98295.44
2022-09-01T04:14:31.168Z,98295.44
2022-09-01T04:17:13.805Z,98291.09
2022-09-01T04:19:44.012Z,98294.34
2022-09-01T04:22:17.756Z,98291.28
2022-09-01T04:24:48.486Z,98295.31
2022-09-01T04:27:23.234Z,98302.09
2022-09-01T04:29:57.938Z,98296.75
2022-09-01T04:32:31.008Z,98305.59
2022-09-01T04:35:04.213Z,98297.22
2022-09-01T04:37:36.589Z,98304.34
2022-09-01T04:40:08.847Z,98304.59
2022-09-01T04:42:40.083Z,98304.84
2022-09-01T04:45:20.434Z,98305.59
2022-09-01T04:47:52.364Z,98305.13
2022-09-01T04:50:23.804Z,98306.94
2022-09-01T04:53:20.443Z,98293.78
2022-09-01T04:55:53.878Z,98300.91
2022-09-01T04:58:25.744Z,98303.97
2022-09-01T05:01:00.443Z,98301.47
2022-09-01T05:03:32.255Z,98303.31
2022-09-01T05:06:08.900Z,98296.25
2022-09-01T05:08:40.277Z,98301.41
2022-09-01T05:11:21.175Z,98300.69
2022-09-01T05:13:56.146Z,98308.13
2022-09-01T05:16:29.143Z,98301.00
2022-09-01T05:19:01.677Z,98301.06
2022-09-01T05:21:36.709Z,98297.28
2022-09-01T05:24:10.873Z,98301.88
2022-09-01T05:26:42.993Z,98298.34
2022-09-01T05:29:17.619Z,98303.78
2022-09-01T05:31:55.012Z,98305.56
2022-09-01T05:34:29.893Z,98306.88
2022-09-01T05:37:02.386Z,98301.34
2022-09-01T05:39:32.947Z,98301.38
2022-09-01T05:42:04.801Z,98302.91
2022-09-01T05:44:36.132Z,98301.47
2022-09-01T05:47:19.127Z,98299.75
2022-09-01T05:49:53.804Z,98310.75
2022-09-01T05:52:26.401Z,98304.47
2022-09-01T05:55:00.253Z,98308.56
2022-09-01T05:57:35.577Z,98305.31
2022-09-01T06:00:14.094Z,98302.06
2022-09-01T06:02:47.334Z,98309.69
2022-09-01T06:05:22.239Z,98301.28
2022-09-01T06:07:57.377Z,98303.31
2022-09-01T06:10:29.766Z,98305.38
2022-09-01T06:13:02.729Z,98298.31
2022-09-01T06:15:33.943Z,98310.28
2022-09-01T06:18:07.119Z,98303.69
2022-09-01T06:20:43.713Z,98305.75
2022-09-01T06:23:15.535Z,98309.13
2022-09-01T06:25:48.064Z,98304.81
2022-09-01T06:28:23.949Z,98309.19
2022-09-01T06:30:57.365Z,98309.91
2022-09-01T06:33:31.137Z,98301.44
2022-09-01T06:36:05.786Z,98310.59
2022-09-01T06:38:36.289Z,98301.88
2022-09-01T06:41:13.111Z,98303.63
2022-09-01T06:43:44.773Z,98310.41
2022-09-01T06:46:15.223Z,98308.72
2022-09-01T06:48:49.165Z,98312.41
2022-09-01T06:51:23.107Z,98315.63
2022-09-01T06:53:59.564Z,98317.28
2022-09-01T06:56:42.806Z,98313.75
2022-09-01T06:59:29.191Z,98319.56
2022-09-01T07:02:06.809Z,98324.31
2022-09-01T07:05:06.103Z,98324.03
2022-09-01T07:14:15.308Z,98320.56
2022-09-01T07:16:52.442Z,98318.00
2022-09-01T07:19:48.243Z,98310.66
2022-09-01T07:25:11.815Z,98312.88
2022-09-01T07:27:52.856Z,98320.03
2022-09-01T07:30:27.255Z,98314.19
2022-09-01T07:33:41.533Z,98314.66
2022-09-01T07:39:48.599Z,98324.25
2022-09-01T07:44:45.134Z,98322.78
2022-09-01T07:47:55.890Z,98319.03
2022-09-01T07:50:40.988Z,98319.50
2022-09-01T07:53:12.846Z,98322.72
2022-09-01T07:55:46.714Z,98318.03
2022-09-01T07:58:17.526Z,98323.75
2022-09-01T08:00:50.233Z,98326.66
2022-09-01T08:03:25.391Z,98327.28
2022-09-01T08:06:00.934Z,98325.13
2022-09-01T08:08:31.338Z,98326.81
2022-09-01T08:11:05.352Z,98319.13
2022-09-01T08:13:41.620Z,98322.81
2022-09-01T08:16:17.984Z,98327.84
2022-09-01T08:18:50.921Z,98310.31
2022-09-01T08:21:34.202Z,98320.03
2022-09-01T08:24:22.329Z,98324.63
2022-09-01T08:26:55.233Z,98324.31
2022-09-01T08:29:25.532Z,98332.66
2022-09-01T08:31:58.642Z,98321.69
2022-09-01T08:34:29.293Z,98321.44
2022-09-01T08:36:59.654Z,98320.34
2022-09-01T08:39:30.721Z,98326.03
2022-09-01T08:42:15.229Z,98325.72
2022-09-01T08:44:55.883Z,98327.66
2022-09-01T08:47:39.331Z,98325.13
2022-09-01T08:50:15.834Z,98321.88
2022-09-01T08:53:26.558Z,98321.53
2022-09-01T08:56:00.745Z,98316.19
2022-09-01T08:58:35.138Z,98336.31
2022-09-01T09:01:33.166Z,98323.50
2022-09-01T09:04:26.463Z,98321.47
2022-09-01T09:07:05.837Z,98324.91
2022-09-01T09:09:49.328Z,98324.25
2022-09-01T09:12:52.997Z,98323.31
2022-09-01T09:15:37.504Z,98321.78
2022-09-01T09:18:39.185Z,98315.25
2022-09-01T09:21:19.390Z,98320.53
2022-09-01T09:23:56.552Z,98324.13
2022-09-01T09:26:42.072Z,98327.59
2022-09-01T09:29:12.698Z,98323.84
2022-09-01T09:31:50.485Z,98318.22
2022-09-01T09:34:36.197Z,98322.09
2022-09-01T09:37:27.409Z,98315.00
2022-09-01T09:40:11.089Z,98320.47
2022-09-01T09:42:42.484Z,98331.09
2022-09-01T09:45:29.748Z,98331.75
2022-09-01T09:48:03.816Z,98330.78
2022-09-01T09:50:38.283Z,98339.34
2022-09-01T09:53:21.879Z,98326.91
2022-09-01T09:56:01.429Z,98334.50
2022-09-01T09:58:39.608Z,98335.06
2022-09-01T10:01:17.710Z,98330.78
2022-09-01T10:03:54.092Z,98329.34
2022-09-01T10:06:36.094Z,98339.94
2022-09-01T10:09:11.440Z,98333.91
2022-09-01T10:11:45.249Z,98333.28
2022-09-01T10:14:35.839Z,98340.84
2022-09-01T10:17:17.619Z,98333.78
2022-09-01T10:19:57.555Z,98329.38
2022-09-01T10:22:29.122Z,98330.34
2022-09-01T10:25:00.739Z,98327.28
2022-09-01T10:27:35.923Z,98325.88
2022-09-01T10:30:18.367Z,98327.44
2022-09-01T10:32:55.924Z,98321.56
2022-09-01T10:35:34.123Z,98320.81
2022-09-01T10:38:11.912Z,98325.94
2022-09-01T10:40:50.021Z,98315.09
2022-09-01T10:43:38.297Z,98320.59
2022-09-01T10:46:50.583Z,98320.25
2022-09-01T10:49:53.272Z,98321.38
2022-09-01T10:52:59.878Z,98329.72
2022-09-01T10:55:40.056Z,98326.13
2022-09-01T11:02:28.138Z,98315.78
2022-09-01T11:05:19.449Z,98324.75
2022-09-01T11:08:15.200Z,98316.91
2022-09-01T11:10:58.558Z,98316.84
2022-09-01T11:13:49.977Z,98320.06
2022-09-01T11:16:52.383Z,98319.00
2022-09-01T11:19:44.518Z,98312.56
2022-09-01T11:22:34.979Z,98313.22
2022-09-01T11:25:43.966Z,98320.59
2022-09-01T11:28:41.949Z,98314.81
2022-09-01T11:31:26.464Z,98308.06
2022-09-01T11:34:06.999Z,98318.09
2022-09-01T11:36:40.842Z,98310.19
2022-09-01T11:39:36.069Z,98311.34
2022-09-01T11:42:14.816Z,98309.63
2022-09-01T11:44:55.713Z,98311.91
2022-09-01T11:47:31.032Z,98309.25
2022-09-01T11:50:05.006Z,98305.59
2022-09-01T11:52:41.623Z,98300.56
2022-09-01T11:55:13.655Z,98307.25
2022-09-01T11:57:44.012Z,98307.88
2022-09-01T12:00:29.067Z,98305.22
2022-09-01T12:03:00.302Z,98305.78
2022-09-01T12:05:36.060Z,98307.66
2022-09-01T12:08:17.793Z,98306.41
2022-09-01T12:10:49.099Z,98304.31
2022-09-01T12:13:24.236Z,98306.19
2022-09-01T12:16:17.554Z,98303.91
2022-09-01T12:18:52.188Z,98302.44
2022-09-01T12:21:26.238Z,98293.34
2022-09-01T12:23:57.631Z,98289.34
2022-09-01T12:26:30.965Z,98294.63
2022-09-01T12:29:01.620Z,98289.88
2022-09-01T12:31:34.886Z,98294.78
2022-09-01T12:34:05.344Z,98287.44
2022-09-01T12:36:38.884Z,98279.22
2022-09-01T12:39:26.150Z,98291.78
2022-09-01T12:42:09.122Z,98291.91
2022-09-01T12:44:51.129Z,98283.28
2022-09-01T12:47:53.678Z,98285.28
2022-09-01T12:50:50.943Z,98287.94
2022-09-01T12:53:30.619Z,98282.47
2022-09-01T12:56:24.584Z,98269.53
2022-09-01T12:59:15.476Z,98269.72
2022-09-01T13:01:47.716Z,98270.25
2022-09-01T13:04:31.727Z,98262.69
2022-09-01T13:07:09.229Z,98254.88
2022-09-01T13:09:39.603Z,98253.13
2022-09-01T13:12:16.898Z,98254.38
2022-09-01T13:14:47.223Z,98248.25
2022-09-01T13:17:17.844Z,98251.25
2022-09-01T13:19:50.636Z,98241.78
2022-09-01T13:22:20.811Z,98237.75
2022-09-01T13:24:50.941Z,98239.31
2022-09-01T13:27:22.337Z,98234.50
2022-09-01T13:29:53.433Z,98226.22
2022-09-01T13:32:25.661Z,98227.84
2022-09-01T13:34:59.907Z,98226.59
2022-09-01T13:37:30.391Z,98226.81
2022-09-01T13:40:01.703Z,98228.63
2022-09-01T13:42:33.332Z,98235.88
2022-09-01T13:45:07.378Z,98217.59
2022-09-01T13:48:15.336Z,98220.59
2022-09-01T13:51:14.132Z,98222.84
2022-09-01T13:53:21.340Z,98217.09
2022-09-01T13:55:52.080Z,98211.47
2022-09-01T13:58:22.248Z,98214.81
2022-09-01T14:00:52.879Z,98218.75
2022-09-01T14:03:26.270Z,98221.25
2022-09-01T14:05:59.982Z,98216.34
2022-09-01T14:08:31.491Z,98222.28
2022-09-01T14:11:01.687Z,98215.47
2022-09-01T14:13:32.582Z,98212.53
2022-09-01T14:16:03.153Z,98216.53
2022-09-01T14:18:36.926Z,98216.88
2022-09-01T14:21:15.610Z,98209.56
2022-09-01T14:23:46.609Z,98214.06
2022-09-01T14:26:19.133Z,98213.53
2022-09-01T14:28:50.519Z,98202.50
2022-09-01T14:31:21.791Z,98214.63
2022-09-01T14:33:52.438Z,98201.81
2022-09-01T14:36:29.257Z,98200.81
2022-09-01T14:38:59.626Z,98204.44
2022-09-01T14:41:29.869Z,98193.56
2022-09-01T14:44:03.393Z,98205.75
2022-09-01T14:46:34.731Z,98195.34
2022-09-01T14:49:07.239Z,98193.56
2022-09-01T14:54:30.259Z,98201.72
2022-09-01T14:59:51.280Z,98194.44
2022-09-01T15:02:25.392Z,98191.25
2022-09-01T15:04:55.576Z,98185.38
2022-09-01T15:07:28.387Z,98189.19
2022-09-01T15:09:59.052Z,98190.38
2022-09-01T15:12:31.065Z,98192.75
2022-09-01T15:15:01.726Z,98199.38
2022-09-01T15:17:32.295Z,98199.28
2022-09-01T15:20:24.084Z,98207.72
2022-09-01T15:22:57.315Z,98211.91
2022-09-01T15:25:28.657Z,98211.09
2022-09-01T15:27:58.910Z,98203.53
2022-09-01T15:30:29.167Z,98198.47
2022-09-01T15:32:59.373Z,98202.13
2022-09-01T15:35:31.700Z,98205.69
2022-09-01T15:38:05.179Z,98200.50
2022-09-01T15:40:36.233Z,98205.13
2022-09-01T15:43:08.998Z,98204.94
2022-09-01T15:45:39.290Z,98193.03
2022-09-01T15:48:09.228Z,98199.78
2022-09-01T15:50:39.440Z,98194.84
2022-09-01T15:53:13.467Z,98198.38
2022-09-01T15:55:46.932Z,98198.88
2022-09-01T15:58:24.733Z,98205.59
2022-09-01T16:01:00.888Z,98197.94
2022-09-01T16:03:32.209Z,98202.63
2022-09-01T16:06:03.343Z,98203.09
2022-09-01T16:08:37.038Z,98202.94
2022-09-01T16:11:12.296Z,98198.31
2022-09-01T16:13:44.116Z,98195.75
2022-09-01T16:16:40.501Z,98197.56
2022-09-01T16:19:27.499Z,98194.78
2022-09-01T16:22:08.787Z,98191.13
2022-09-01T16:24:46.437Z,98194.00
2022-09-01T16:27:21.263Z,98207.53
2022-09-01T16:29:55.011Z,98206.34
2022-09-01T16:32:27.241Z,98203.22
2022-09-01T16:34:57.586Z,98196.50
2022-09-01T16:37:42.878Z,98201.13
2022-09-01T16:40:32.737Z,98202.31
2022-09-01T16:43:12.576Z,98203.72
2022-09-01T16:45:54.621Z,98204.94
2022-09-01T16:48:34.113Z,98201.72
2022-09-01T16:51:16.872Z,98212.47
2022-09-01T16:54:01.661Z,98205.84
2022-09-01T16:56:41.978Z,98209.53
2022-09-01T16:59:27.282Z,98211.19
2022-09-01T17:02:11.628Z,98212.81
2022-09-01T17:04:45.876Z,98210.63
2022-09-01T17:07:19.164Z,98212.66
2022-09-01T17:10:01.846Z,98212.53
2022-09-01T17:12:43.512Z,98206.56
2022-09-01T17:15:18.254Z,98211.75
2022-09-01T17:17:55.940Z,98210.97
2022-09-01T17:20:31.508Z,98213.63
2022-09-01T17:23:08.813Z,98211.69
2022-09-01T17:25:44.982Z,98217.28
2022-09-01T17:28:27.492Z,98208.16
2022-09-01T17:31:14.431Z,98218.78
2022-09-01T17:34:06.424Z,98220.41
2022-09-01T17:36:51.729Z,98218.22
2022-09-01T17:39:38.093Z,98231.41
2022-09-01T17:42:18.498Z,98224.00
2022-09-01T17:44:58.213Z,98225.44
2022-09-01T17:47:39.890Z,98235.56
2022-09-01T17:50:19.127Z,98246.06
2022-09-01T17:53:10.328Z,98241.53
2022-09-01T17:55:52.912Z,98237.50
2022-09-01T17:58:40.835Z,98247.81
2022-09-01T18:01:22.184Z,98243.31
2022-09-01T18:04:38.774Z,98237.75
2022-09-01T18:07:24.084Z,98245.00
2022-09-01T18:09:59.544Z,98237.63
2022-09-01T18:12:35.344Z,98246.41
2022-09-01T18:15:14.326Z,98238.34
2022-09-01T18:17:52.500Z,98246.84
2022-09-01T18:20:28.308Z,98255.34
2022-09-01T18:23:07.811Z,98256.47
2022-09-01T18:25:43.689Z,98256.28
2022-09-01T18:28:14.102Z,98256.84
2022-09-01T18:30:53.268Z,98259.44
2022-09-01T18:33:33.363Z,98269.44
2022-09-01T18:36:23.511Z,98266.16
2022-09-01T18:39:00.246Z,98263.09
2022-09-01T18:41:46.655Z,98271.81
2022-09-01T18:44:39.812Z,98269.06
2022-09-01T18:47:14.438Z,98275.19
2022-09-01T18:49:59.492Z,98267.56
2022-09-01T18:52:56.262Z,98265.56
2022-09-01T18:55:36.246Z,98265.31
2022-09-01T18:58:12.068Z,98268.16
2022-09-01T19:00:52.206Z,98267.44
2022-09-01T19:03:31.718Z,98271.81
2022-09-01T19:06:27.278Z,98265.72
2022-09-01T19:09:19.714Z,98266.00
2022-09-01T19:12:05.792Z,98270.88
2022-09-01T19:14:45.831Z,98268.59
2022-09-01T19:17:39.303Z,98269.88
2022-09-01T19:20:15.031Z,98271.66
2022-09-01T19:22:55.093Z,98268.63
2022-09-01T19:25:41.827Z,98260.22
2022-09-01T19:28:24.607Z,98275.25
2022-09-01T19:31:07.124Z,98267.34
2022-09-01T19:33:44.992Z,98266.59
2022-09-01T19:36:25.078Z,98269.66
2022-09-01T19:38:58.366Z,98269.66
2022-09-01T19:41:35.700Z,98270.47
2022-09-01T19:44:14.583Z,98270.50
2022-09-01T19:46:50.978Z,98270.00
2022-09-01T19:49:35.475Z,98267.47
2022-09-01T19:52:14.187Z,98273.63
2022-09-01T19:54:57.538Z,98269.59
2022-09-01T19:57:36.312Z,98274.94
2022-09-01T20:00:15.195Z,98280.09
2022-09-01T20:02:54.442Z,98270.44
2022-09-01T20:05:33.311Z,98280.13
2022-09-01T20:08:10.814Z,98274.53
2022-09-01T20:11:05.373Z,98275.03
2022-09-01T20:14:08.922Z,98269.16
2022-09-01T20:16:43.643Z,98271.75
2022-09-01T20:19:19.637Z,98266.34
2022-09-01T20:21:51.512Z,98270.94
2022-09-01T20:24:34.847Z,98258.47
2022-09-01T20:27:22.248Z,98260.00
2022-09-01T20:30:00.729Z,98260.25
2022-09-01T20:32:41.247Z,98265.09
2022-09-01T20:35:17.727Z,98265.34
2022-09-01T20:37:53.432Z,98269.66
2022-09-01T20:40:27.363Z,98277.03
2022-09-01T20:43:18.565Z,98276.78
2022-09-01T20:45:49.364Z,98270.66
2022-09-01T20:48:22.564Z,98275.75
2022-09-01T20:50:59.791Z,98270.63
2022-09-01T20:54:04.453Z,98270.13
2022-09-01T20:56:45.580Z,98271.41
2022-09-01T20:59:27.378Z,98269.63
2022-09-01T21:02:05.029Z,98272.41
2022-09-01T21:04:49.193Z,98269.06
2022-09-01T21:07:22.364Z,98271.38
2022-09-01T21:10:02.643Z,98261.94
2022-09-01T21:12:40.244Z,98264.25
2022-09-01T21:15:28.875Z,98266.53
2022-09-01T21:18:16.191Z,98266.78
2022-09-01T21:21:00.214Z,98270.34
2022-09-01T21:23:32.210Z,98263.47
2022-09-01T21:26:03.603Z,98263.41
2022-09-01T21:28:33.951Z,98268.50
2022-09-01T21:31:10.434Z,98259.59
2022-09-01T21:33:40.699Z,98263.66
2022-09-01T21:36:12.274Z,98268.50
2022-09-01T21:38:42.495Z,98262.88
2022-09-01T21:41:13.423Z,98265.16
2022-09-01T21:43:47.497Z,98261.84
2022-09-01T21:46:20.393Z,98266.66
2022-09-01T21:48:51.506Z,98262.84
2022-09-01T21:51:21.704Z,98263.84
2022-09-01T21:53:51.886Z,98260.53
2022-09-01T21:56:25.612Z,98253.38
2022-09-01T21:58:58.368Z,98257.69
2022-09-01T22:01:31.874Z,98261.22
2022-09-01T22:04:04.414Z,98258.41
2022-09-01T22:06:35.697Z,98264.72
2022-09-01T22:09:20.743Z,98265.44
2022-09-01T22:11:54.011Z,98264.41
2022-09-01T22:14:25.962Z,98267.94
2022-09-01T22:17:03.512Z,98268.16
2022-09-01T22:19:36.287Z,98269.94
2022-09-01T22:22:07.483Z,98267.09
2022-09-01T22:24:37.801Z,98259.69
2022-09-01T22:27:08.368Z,98259.19
2022-09-01T22:29:38.520Z,98258.13
2022-09-01T22:32:11.431Z,98251.78
2022-09-01T22:34:43.551Z,98253.81
2022-09-01T22:37:13.873Z,98260.69
2022-09-01T22:39:44.222Z,98251.00
2022-09-01T22:42:14.578Z,98256.03
2022-09-01T22:44:44.785Z,98260.34
2022-09-01T22:47:17.662Z,98263.09
2022-09-01T22:49:48.442Z,98262.03
2022-09-01T22:52:18.914Z,98257.19
2022-09-01T22:54:49.128Z,98257.91
2022-09-01T22:57:20.317Z,98260.94
2022-09-01T22:59:50.676Z,98255.56
2022-09-01T23:02:23.864Z,98248.97
2022-09-01T23:04:54.368Z,98261.38
2022-09-01T23:07:24.666Z,98257.53
2022-09-01T23:09:54.798Z,98253.50
2022-09-01T23:12:25.015Z,98245.59
2022-09-01T23:14:55.362Z,98245.56
2022-09-01T23:17:28.250Z,98245.31
2022-09-01T23:19:58.979Z,98251.88
2022-09-01T23:22:29.135Z,98251.88
2022-09-01T23:24:59.374Z,98250.81
2022-09-01T23:27:29.807Z,98242.69
2022-09-01T23:30:00.337Z,98249.25
2022-09-01T23:32:33.182Z,98239.34
2022-09-01T23:35:03.466Z,98239.06
2022-09-01T23:37:33.685Z,98239.31
2022-09-01T23:40:04.103Z,98241.81
2022-09-01T23:42:34.352Z,98236.50
2022-09-01T23:45:04.520Z,98237.00
2022-09-01T23:47:37.404Z,98234.69
2022-09-01T23:50:09.465Z,98231.13
2022-09-01T23:52:39.832Z,98235.19
2022-09-01T23:55:11.921Z,98235.41
2022-09-01T23:57:42.127Z,98228.28
